Time;durP1;ratioP1;P1;durP2;ratioP2;P2;SDS_P1;SDS_P2;PMS_P1;PMS_P2;Temp;Humidity;BMP_temperature;BMP_pressure;BME280_temperature;BME280_humidity;BME280_pressure;Samples;Min_cycle;Max_cycle;Signal;HPM_P1;HPM_P2
2023/10/06 00:01:34;;;;;;;0.20;0.00;;;;;;;;;;5033976;23;20045;-77
2023/10/06 00:04:06;;;;;;;0.20;0.05;;;;;;;;;;4956045;28;20061;-79
2023/10/06 00:06:35;;;;;;;0.20;0.00;;;;;;;;;;4981048;28;20046;-77
2023/10/06 00:09:05;;;;;;;0.65;0.55;;;;;;;;;;4967480;28;20067;-78
2023/10/06 00:11:34;;;;;;;0.20;0.00;;;;;;;;;;4962800;28;20133;-82
2023/10/06 00:14:00;;;;;;;0.20;0.10;;;;;;;;;;4963433;28;20305;-79
2023/10/06 00:16:29;;;;;;;0.20;0.00;;;;;;;;;;4979544;28;20486;-78
2023/10/06 00:19:11;;;;;;;1.27;0.73;;;;;;;;;;4967477;28;20043;-78
2023/10/06 00:21:43;;;;;;;0.20;0.10;;;;;;;;;;4992300;28;20072;-79
2023/10/06 00:24:10;;;;;;;0.32;0.30;;;;;;;;;;4979810;28;20046;-77
2023/10/06 00:26:37;;;;;;;0.20;0.00;;;;;;;;;;4977697;28;20039;-78
2023/10/06 00:29:10;;;;;;;0.20;0.10;;;;;;;;;;4998773;28;20082;-80
2023/10/06 00:31:36;;;;;;;0.20;0.10;;;;;;;;;;4960589;28;20046;-78
2023/10/06 00:34:02;;;;;;;0.20;0.03;;;;;;;;;;4978825;28;20031;-78
2023/10/06 00:36:29;;;;;;;0.25;0.20;;;;;;;;;;4959563;28;20034;-78
2023/10/06 00:38:55;;;;;;;0.35;0.28;;;;;;;;;;4960409;28;20494;-79
2023/10/06 00:41:21;;;;;;;0.20;0.00;;;;;;;;;;4978627;28;20053;-78
2023/10/06 00:43:48;;;;;;;0.20;0.00;;;;;;;;;;4979105;28;20050;-79
2023/10/06 00:46:16;;;;;;;0.20;0.10;;;;;;;;;;4982548;28;20046;-80
2023/10/06 00:48:43;;;;;;;0.20;0.00;;;;;;;;;;4976576;28;20041;-78
2023/10/06 00:51:19;;;;;;;0.28;0.28;;;;;;;;;;4957795;28;20740;-78
2023/10/06 00:53:45;;;;;;;0.20;0.10;;;;;;;;;;4959853;28;20046;-78
2023/10/06 00:56:15;;;;;;;0.20;0.00;;;;;;;;;;4965876;28;20153;-78
2023/10/06 00:58:41;;;;;;;0.20;0.10;;;;;;;;;;4959943;28;20042;-77
2023/10/06 01:01:16;;;;;;;0.20;0.10;;;;;;;;;;4969623;28;20043;-78
2023/10/06 01:03:44;;;;;;;0.20;0.10;;;;;;;;;;4969051;28;20041;-78
2023/10/06 01:06:14;;;;;;;0.20;0.10;;;;;;;;;;4979712;28;20454;-78
2023/10/06 01:08:53;;;;;;;1.95;0.90;;;;;;;;;;4983803;28;20094;-77
2023/10/06 01:11:26;;;;;;;0.25;0.17;;;;;;;;;;4979870;28;20598;-79
2023/10/06 01:13:55;;;;;;;0.20;0.10;;;;;;;;;;4958306;28;20616;-80
2023/10/06 01:16:34;;;;;;;0.20;0.03;;;;;;;;;;4964479;28;20120;-77
2023/10/06 01:19:25;;;;;;;1.38;1.00;;;;;;;;;;4965975;28;20057;-77
2023/10/06 01:21:55;;;;;;;0.30;0.25;;;;;;;;;;4978133;28;20046;-77
2023/10/06 01:24:25;;;;;;;1.85;0.30;;;;;;;;;;4975817;28;20042;-77
2023/10/06 01:27:05;;;;;;;0.20;0.20;;;;;;;;;;4981352;28;20111;-77
2023/10/06 01:29:32;;;;;;;0.30;0.30;;;;;;;;;;4961245;28;20047;-79
2023/10/06 01:31:58;;;;;;;0.32;0.32;;;;;;;;;;4957243;28;20034;-79
2023/10/06 01:34:24;;;;;;;0.20;0.10;;;;;;;;;;4996942;28;20030;-78
2023/10/06 01:36:53;;;;;;;0.20;0.10;;;;;;;;;;4966623;28;20038;-78
2023/10/06 01:39:23;;;;;;;0.20;0.10;;;;;;;;;;4963781;28;20096;-77
2023/10/06 01:41:49;;;;;;;0.20;0.10;;;;;;;;;;4976243;28;20046;-79
2023/10/06 01:44:17;;;;;;;0.20;0.10;;;;;;;;;;4963434;28;20510;-80
2023/10/06 01:46:44;;;;;;;0.20;0.10;;;;;;;;;;4980738;28;20050;-77
2023/10/06 01:49:10;;;;;;;0.45;0.45;;;;;;;;;;4980074;28;20071;-80
2023/10/06 01:51:39;;;;;;;0.20;0.10;;;;;;;;;;4964685;28;20057;-80
2023/10/06 01:54:12;;;;;;;0.20;0.10;;;;;;;;;;4981512;28;20042;-81
2023/10/06 01:56:42;;;;;;;0.65;0.57;;;;;;;;;;4964597;28;20515;-80
2023/10/06 01:59:10;;;;;;;0.40;0.28;;;;;;;;;;4977877;28;20048;-79
2023/10/06 02:01:39;;;;;;;0.20;0.10;;;;;;;;;;4995458;28;20057;-79
2023/10/06 02:04:14;;;;;;;0.20;0.10;;;;;;;;;;4962112;28;20073;-77
2023/10/06 02:06:48;;;;;;;0.20;0.10;;;;;;;;;;4991320;28;20110;-78
2023/10/06 02:09:20;;;;;;;0.20;0.17;;;;;;;;;;4993731;28;21223;-78
2023/10/06 02:11:46;;;;;;;;;;;;;;;;;;4963700;28;20039;-80
2023/10/06 02:14:17;;;;;;;0.32;0.32;;;;;;;;;;4994187;28;19924;-79
2023/10/06 02:16:44;;;;;;;0.20;0.10;;;;;;;;;;4967300;28;20510;-79
2023/10/06 02:19:10;;;;;;;0.90;0.73;;;;;;;;;;4985714;28;20069;-78
2023/10/06 02:21:42;;;;;;;0.20;0.00;;;;;;;;;;4979463;28;20671;-78
2023/10/06 02:24:08;;;;;;;0.20;0.10;;;;;;;;;;4965403;28;20097;-80
2023/10/06 02:26:38;;;;;;;0.20;0.08;;;;;;;;;;4963424;28;20461;-80
2023/10/06 02:29:11;;;;;;;0.20;0.10;;;;;;;;;;4974308;28;20046;-77
2023/10/06 02:31:37;;;;;;;0.20;0.13;;;;;;;;;;4976933;28;20450;-78
2023/10/06 02:34:11;;;;;;;0.20;0.10;;;;;;;;;;4980199;28;20050;-81
2023/10/06 02:36:38;;;;;;;0.20;0.10;;;;;;;;;;4996483;28;20073;-80
2023/10/06 02:39:06;;;;;;;0.40;0.30;;;;;;;;;;4961315;28;20046;-80
2023/10/06 02:41:34;;;;;;;0.20;0.17;;;;;;;;;;4985657;28;20121;-81
2023/10/06 02:44:13;;;;;;;0.30;0.25;;;;;;;;;;4989249;28;20050;-80
2023/10/06 02:46:40;;;;;;;0.25;0.10;;;;;;;;;;4976884;28;20048;-79
2023/10/06 02:49:08;;;;;;;0.20;0.05;;;;;;;;;;4984260;28;20459;-79
2023/10/06 02:51:47;;;;;;;0.20;0.13;;;;;;;;;;4982699;28;20042;-79
2023/10/06 02:56:40;;;;;;;0.40;0.40;;;;;;;;;;4985830;28;20042;-81
2023/10/06 02:59:20;;;;;;;0.20;0.05;;;;;;;;;;4981748;28;20533;-79
2023/10/06 03:01:51;;;;;;;0.20;0.00;;;;;;;;;;4961239;28;20181;-82
2023/10/06 03:04:17;;;;;;;0.20;0.00;;;;;;;;;;4980303;28;20042;-79
2023/10/06 03:06:53;;;;;;;0.20;0.00;;;;;;;;;;4966168;28;20520;-80
2023/10/06 03:09:19;;;;;;;0.20;0.10;;;;;;;;;;4984152;28;20066;-79
2023/10/06 03:11:49;;;;;;;0.20;0.20;;;;;;;;;;4982346;28;20079;-80
2023/10/06 03:14:23;;;;;;;0.20;0.10;;;;;;;;;;4962860;28;20580;-79
2023/10/06 03:16:51;;;;;;;0.20;0.03;;;;;;;;;;4982350;28;20327;-81
2023/10/06 03:19:21;;;;;;;1.55;1.45;;;;;;;;;;4983813;28;20106;-79
2023/10/06 03:21:48;;;;;;;0.20;0.10;;;;;;;;;;4967628;28;20053;-82
2023/10/06 03:24:20;;;;;;;0.20;0.00;;;;;;;;;;4981243;28;20394;-79
2023/10/06 03:26:47;;;;;;;0.20;0.03;;;;;;;;;;4961550;28;20121;-79
2023/10/06 03:29:28;;;;;;;0.20;0.10;;;;;;;;;;4964771;28;20030;-79
2023/10/06 03:31:56;;;;;;;0.20;0.10;;;;;;;;;;4962445;28;21357;-79
2023/10/06 03:34:23;;;;;;;0.52;0.20;;;;;;;;;;4985528;28;20050;-80
2023/10/06 03:36:52;;;;;;;0.20;0.00;;;;;;;;;;4979236;28;20053;-79
2023/10/06 03:39:27;;;;;;;0.20;0.20;;;;;;;;;;4987154;28;20121;-78
2023/10/06 03:41:56;;;;;;;0.20;0.10;;;;;;;;;;4968310;28;20380;-79
2023/10/06 03:44:26;;;;;;;0.20;0.10;;;;;;;;;;4987562;28;20038;-77
2023/10/06 03:46:53;;;;;;;0.82;0.43;;;;;;;;;;4992059;28;20045;-81
2023/10/06 03:49:19;;;;;;;0.25;0.20;;;;;;;;;;4972124;28;20039;-78
2023/10/06 03:51:45;;;;;;;0.40;0.35;;;;;;;;;;4987958;28;20046;-82
2023/10/06 03:54:11;;;;;;;0.20;0.10;;;;;;;;;;4983406;28;20129;-79
2023/10/06 03:56:37;;;;;;;0.20;0.10;;;;;;;;;;5009050;28;20045;-80
2023/10/06 03:59:12;;;;;;;0.20;0.10;;;;;;;;;;4992722;28;20038;-79
2023/10/06 04:01:38;;;;;;;0.25;0.10;;;;;;;;;;5004242;28;20042;-79
2023/10/06 04:04:05;;;;;;;0.20;0.10;;;;;;;;;;4986636;28;20045;-77
2023/10/06 04:06:35;;;;;;;0.20;0.10;;;;;;;;;;4988716;28;20093;-79
2023/10/06 04:09:01;;;;;;;0.20;0.15;;;;;;;;;;4967790;28;20038;-79
2023/10/06 04:11:30;;;;;;;0.20;0.20;;;;;;;;;;4985868;28;20109;-79
2023/10/06 04:13:56;;;;;;;0.20;0.10;;;;;;;;;;4979157;28;20130;-79
2023/10/06 04:16:23;;;;;;;0.20;0.00;;;;;;;;;;4973242;28;20050;-76
2023/10/06 04:18:49;;;;;;;0.20;0.10;;;;;;;;;;4968274;28;20355;-78
2023/10/06 04:21:20;;;;;;;0.20;0.10;;;;;;;;;;4978078;28;20042;-79
2023/10/06 04:23:46;;;;;;;0.20;0.00;;;;;;;;;;4981993;28;20069;-81
2023/10/06 04:26:16;;;;;;;0.35;0.32;;;;;;;;;;4967807;28;20045;-81
2023/10/06 04:28:45;;;;;;;0.20;0.05;;;;;;;;;;4966359;28;21663;-80
2023/10/06 04:31:11;;;;;;;0.20;0.10;;;;;;;;;;4979312;28;20038;-79
2023/10/06 04:33:37;;;;;;;0.30;0.30;;;;;;;;;;4987957;28;20469;-77
2023/10/06 04:36:07;;;;;;;0.20;0.13;;;;;;;;;;4961624;28;20417;-78
2023/10/06 04:38:37;;;;;;;0.20;0.05;;;;;;;;;;4965575;28;20456;-79
2023/10/06 04:41:03;;;;;;;0.28;0.20;;;;;;;;;;4978489;28;20745;-80
2023/10/06 04:43:29;;;;;;;0.20;0.10;;;;;;;;;;4973804;28;20030;-78
2023/10/06 04:45:55;;;;;;;0.20;0.10;;;;;;;;;;4961191;28;20333;-79
2023/10/06 04:48:21;;;;;;;0.20;0.05;;;;;;;;;;4973628;28;20100;-79
2023/10/06 04:50:50;;;;;;;0.22;0.13;;;;;;;;;;4954197;28;20471;-80
2023/10/06 04:53:16;;;;;;;0.20;0.10;;;;;;;;;;4959744;28;20065;-78
2023/10/06 04:55:43;;;;;;;0.20;0.10;;;;;;;;;;4974872;28;20038;-77
2023/10/06 04:58:10;;;;;;;1.00;1.00;;;;;;;;;;4977818;28;20035;-78
2023/10/06 05:00:36;;;;;;;0.20;0.10;;;;;;;;;;4963264;28;20046;-81
2023/10/06 05:03:04;;;;;;;0.20;0.00;;;;;;;;;;4968103;28;20072;-78
2023/10/06 05:05:33;;;;;;;1.65;0.90;;;;;;;;;;4960424;28;20085;-79
2023/10/06 05:08:00;;;;;;;0.20;0.10;;;;;;;;;;4952875;28;20034;-79
2023/10/06 05:10:26;;;;;;;0.25;0.17;;;;;;;;;;4978786;28;20042;-80
2023/10/06 05:12:55;;;;;;;0.20;0.15;;;;;;;;;;4964845;28;20110;-81
2023/10/06 05:15:24;;;;;;;0.20;0.00;;;;;;;;;;4978211;28;20254;-76
2023/10/06 05:17:58;;;;;;;0.65;0.45;;;;;;;;;;4984224;28;20434;-79
2023/10/06 05:20:29;;;;;;;0.20;0.10;;;;;;;;;;4961696;28;20490;-80
2023/10/06 05:23:09;;;;;;;0.20;0.17;;;;;;;;;;4961962;28;20069;-78
2023/10/06 05:25:35;;;;;;;0.60;0.57;;;;;;;;;;4988391;28;20498;-81
2023/10/06 05:28:02;;;;;;;0.20;0.00;;;;;;;;;;4959776;28;20062;-79
2023/10/06 05:30:28;;;;;;;0.20;0.10;;;;;;;;;;4974891;28;20226;-78
2023/10/06 05:32:58;;;;;;;0.20;0.10;;;;;;;;;;4981122;28;20499;-79
2023/10/06 05:35:27;;;;;;;0.20;0.00;;;;;;;;;;4978758;28;20122;-78
2023/10/06 05:37:53;;;;;;;1.00;0.63;;;;;;;;;;4962524;28;20073;-79
2023/10/06 05:40:22;;;;;;;0.20;0.00;;;;;;;;;;4961900;28;20049;-80
2023/10/06 05:42:49;;;;;;;0.30;0.20;;;;;;;;;;4963621;28;20038;-77
2023/10/06 05:45:16;;;;;;;0.20;0.10;;;;;;;;;;4961799;28;20039;-79
2023/10/06 05:47:43;;;;;;;0.20;0.05;;;;;;;;;;4964687;28;20206;-78
2023/10/06 05:50:11;;;;;;;0.20;0.10;;;;;;;;;;4986027;28;20557;-80
2023/10/06 05:52:38;;;;;;;0.20;0.20;;;;;;;;;;4981237;28;20046;-80
2023/10/06 05:55:09;;;;;;;0.20;0.08;;;;;;;;;;4969348;28;20191;-79
2023/10/06 05:57:38;;;;;;;0.20;0.13;;;;;;;;;;4984373;28;20133;-80
2023/10/06 06:00:09;;;;;;;0.20;0.10;;;;;;;;;;4976982;28;20070;-81
2023/10/06 06:02:37;;;;;;;0.20;0.10;;;;;;;;;;4979511;23;20049;-84
2023/10/06 06:05:15;;;;;;;0.52;0.30;;;;;;;;;;5019335;28;20394;-85
2023/10/06 06:07:59;;;;;;;0.20;0.05;;;;;;;;;;5021312;28;20116;-83
2023/10/06 06:10:35;;;;;;;0.20;0.10;;;;;;;;;;5023315;28;20045;-83
2023/10/06 06:13:07;;;;;;;0.20;0.15;;;;;;;;;;5016966;28;20092;-84
2023/10/06 06:15:42;;;;;;;0.85;0.85;;;;;;;;;;5019622;28;20109;-84
2023/10/06 06:18:16;;;;;;;1.13;0.90;;;;;;;;;;4998895;28;20359;-85
2023/10/06 06:20:45;;;;;;;0.20;0.10;;;;;;;;;;5021660;28;20045;-84
2023/10/06 06:23:20;;;;;;;0.20;0.10;;;;;;;;;;5022942;28;20038;-84
2023/10/06 06:25:49;;;;;;;0.43;0.25;;;;;;;;;;5016289;28;20418;-85
2023/10/06 06:28:18;;;;;;;0.40;0.40;;;;;;;;;;5021496;28;20045;-84
2023/10/06 06:30:47;;;;;;;1.15;1.08;;;;;;;;;;5020915;28;20605;-83
2023/10/06 06:33:42;;;;;;;0.20;0.10;;;;;;;;;;5001372;28;20037;-88
2023/10/06 06:36:14;;;;;;;0.20;0.10;;;;;;;;;;5016345;28;20053;-82
2023/10/06 06:38:49;;;;;;;0.20;0.10;;;;;;;;;;5004818;28;20494;-84
2023/10/06 06:41:25;;;;;;;0.20;0.00;;;;;;;;;;5023502;28;20127;-85
2023/10/06 06:44:01;;;;;;;0.20;0.10;;;;;;;;;;5018141;28;20045;-85
2023/10/06 06:46:43;;;;;;;0.25;0.25;;;;;;;;;;5018348;28;20037;-84
2023/10/06 06:52:09;;;;;;;0.25;0.25;;;;;;;;;;5018483;28;20042;-85
2023/10/06 06:54:48;;;;;;;;;;;;;;;;;;;;;
2023/10/06 06:57:35;;;;;;;0.20;0.10;;;;;;;;;;4992460;28;20045;-83
2023/10/06 07:00:25;;;;;;;0.30;0.20;;;;;;;;;;5006795;28;22279;-85
2023/10/06 07:03:07;;;;;;;0.28;0.20;;;;;;;;;;5020218;28;20038;-84
2023/10/06 07:05:48;;;;;;;0.20;0.10;;;;;;;;;;5016277;28;20038;-84
2023/10/06 07:08:19;;;;;;;0.20;0.10;;;;;;;;;;5025197;28;20042;-84
2023/10/06 07:10:57;;;;;;;0.20;0.00;;;;;;;;;;5009151;28;20052;-86
2023/10/06 07:13:29;;;;;;;0.40;0.30;;;;;;;;;;5006607;28;20049;-83
2023/10/06 07:15:59;;;;;;;0.20;0.10;;;;;;;;;;5023313;28;20622;-84
2023/10/06 07:18:39;;;;;;;0.20;0.00;;;;;;;;;;5023252;28;20038;-84
2023/10/06 07:21:22;;;;;;;0.20;0.10;;;;;;;;;;5018678;28;20560;-83
2023/10/06 07:23:51;;;;;;;0.20;0.10;;;;;;;;;;5023872;28;20049;-83
2023/10/06 07:26:31;;;;;;;0.30;0.30;;;;;;;;;;5019077;28;20050;-86
2023/10/06 07:29:08;;;;;;;0.20;0.10;;;;;;;;;;5024610;28;20116;-83
2023/10/06 07:32:02;;;;;;;0.28;0.13;;;;;;;;;;5018486;28;20494;-83
2023/10/06 07:34:32;;;;;;;0.20;0.10;;;;;;;;;;5021746;28;20033;-85
2023/10/06 07:37:13;;;;;;;0.73;0.63;;;;;;;;;;5019542;28;20355;-82
2023/10/06 07:42:44;;;;;;;0.20;0.10;;;;;;;;;;5040607;28;20037;-86
2023/10/06 07:45:29;;;;;;;;;;;;;;;;;;;;;
2023/10/06 07:51:58;;;;;;;0.47;0.25;;;;;;;;;;5020530;28;20120;-86
2023/10/06 07:54:44;;;;;;;0.20;0.10;;;;;;;;;;5010693;28;20045;-82
2023/10/06 07:57:22;;;;;;;0.20;0.10;;;;;;;;;;5023318;28;20103;-85
2023/10/06 08:02:43;;;;;;;0.20;0.15;;;;;;;;;;4997126;28;20049;-84
2023/10/06 08:05:21;;;;;;;1.60;0.20;;;;;;;;;;5010141;28;20326;-85
2023/10/06 08:08:14;;;;;;;0.20;0.00;;;;;;;;;;5008742;28;20053;-85
2023/10/06 08:11:02;;;;;;;0.20;0.08;;;;;;;;;;5021210;28;20092;-84
2023/10/06 08:13:34;;;;;;;0.22;0.20;;;;;;;;;;5022678;28;20045;-83
2023/10/06 08:16:26;;;;;;;0.20;0.20;;;;;;;;;;5006249;28;20045;-84
2023/10/06 08:18:58;;;;;;;0.20;0.10;;;;;;;;;;5017978;28;20064;-83
2023/10/06 08:22:11;;;;;;;0.77;0.75;;;;;;;;;;5024441;28;20127;-85
2023/10/06 08:24:43;;;;;;;0.20;0.10;;;;;;;;;;5027381;28;20476;-84
2023/10/06 08:27:23;;;;;;;1.00;0.68;;;;;;;;;;5026857;28;20136;-86
2023/10/06 08:29:54;;;;;;;0.20;0.10;;;;;;;;;;5025847;28;20038;-85
2023/10/06 08:32:24;;;;;;;0.40;0.40;;;;;;;;;;5006139;28;20045;-84
2023/10/06 08:34:59;;;;;;;2.30;0.30;;;;;;;;;;5026135;28;20045;-83
2023/10/06 08:37:56;;;;;;;0.20;0.10;;;;;;;;;;5008848;28;20076;-86
2023/10/06 08:40:36;;;;;;;0.50;0.40;;;;;;;;;;5006747;28;20053;-84
2023/10/06 08:43:11;;;;;;;0.25;0.15;;;;;;;;;;5008941;28;20498;-85
2023/10/06 08:46:01;;;;;;;0.20;0.10;;;;;;;;;;5043945;28;20037;-85
2023/10/06 08:48:36;;;;;;;0.20;0.10;;;;;;;;;;5038194;28;20045;-83
2023/10/06 08:51:07;;;;;;;0.40;0.20;;;;;;;;;;5030583;28;20033;-85
2023/10/06 08:53:59;;;;;;;0.32;0.32;;;;;;;;;;5008869;28;20061;-82
2023/10/06 08:56:49;;;;;;;0.50;0.50;;;;;;;;;;5034369;28;20083;-86
2023/10/06 08:59:22;;;;;;;0.65;0.65;;;;;;;;;;5010275;28;20379;-84
2023/10/06 09:01:50;;;;;;;0.20;0.10;;;;;;;;;;5025198;28;20041;-86
2023/10/06 09:04:21;;;;;;;0.20;0.05;;;;;;;;;;5023204;28;20519;-85
2023/10/06 09:07:08;;;;;;;0.30;0.20;;;;;;;;;;5027030;28;20408;-84
2023/10/06 09:09:37;;;;;;;0.20;0.10;;;;;;;;;;5041950;28;20126;-82
2023/10/06 09:12:26;;;;;;;0.20;0.13;;;;;;;;;;5024696;28;20047;-85
2023/10/06 09:15:24;;;;;;;0.20;0.10;;;;;;;;;;5023298;28;20034;-84
2023/10/06 09:17:56;;;;;;;0.20;0.00;;;;;;;;;;5024226;28;20041;-82
2023/10/06 09:20:38;;;;;;;0.20;0.13;;;;;;;;;;5027551;28;20224;-85
2023/10/06 09:23:11;;;;;;;0.50;0.13;;;;;;;;;;5024753;28;20049;-84
2023/10/06 09:25:47;;;;;;;0.20;0.00;;;;;;;;;;5025463;28;20041;-86
2023/10/06 09:28:20;;;;;;;0.28;0.20;;;;;;;;;;5024755;28;20041;-82
2023/10/06 09:31:12;;;;;;;0.20;0.10;;;;;;;;;;5026214;28;20128;-86
2023/10/06 09:33:38;;;;;;;0.20;0.10;;;;;;;;;;5036532;28;20041;-83
2023/10/06 09:36:11;;;;;;;0.20;0.00;;;;;;;;;;5009101;28;20053;-86
2023/10/06 09:38:37;;;;;;;0.20;0.10;;;;;;;;;;5020132;28;20041;-84
2023/10/06 09:41:05;;;;;;;0.20;0.00;;;;;;;;;;5018038;28;20665;-83
2023/10/06 09:43:35;;;;;;;0.20;0.10;;;;;;;;;;5007077;28;20065;-86
2023/10/06 09:46:06;;;;;;;0.20;0.10;;;;;;;;;;5022776;28;20437;-84
2023/10/06 09:48:35;;;;;;;0.20;0.10;;;;;;;;;;5012263;28;20120;-86
2023/10/06 09:51:06;;;;;;;0.20;0.20;;;;;;;;;;5010464;28;20516;-85
2023/10/06 09:53:35;;;;;;;0.20;0.10;;;;;;;;;;5006601;28;20195;-79
2023/10/06 09:56:03;;;;;;;0.30;0.30;;;;;;;;;;5009157;28;20421;-85
2023/10/06 09:58:33;;;;;;;0.20;0.10;;;;;;;;;;4997092;28;20067;-87
2023/10/06 10:01:09;;;;;;;0.35;0.35;;;;;;;;;;5020949;28;20048;-87
2023/10/06 10:03:42;;;;;;;0.20;0.03;;;;;;;;;;5006753;28;20775;-84
2023/10/06 10:06:17;;;;;;;0.20;0.10;;;;;;;;;;5042969;28;20517;-85
2023/10/06 10:08:51;;;;;;;0.30;0.25;;;;;;;;;;5014120;28;20041;-85
2023/10/06 10:11:39;;;;;;;;;;;;;;;;;;;;;
2023/10/06 10:14:36;;;;;;;0.20;0.10;;;;;;;;;;5010516;28;20328;-86
2023/10/06 10:17:33;;;;;;;1.30;0.70;;;;;;;;;;5021664;28;20052;-82
2023/10/06 10:20:00;;;;;;;0.20;0.20;;;;;;;;;;5022150;28;20405;-84
2023/10/06 10:22:26;;;;;;;1.20;0.47;;;;;;;;;;5037487;28;20053;-81
2023/10/06 10:24:52;;;;;;;0.20;0.10;;;;;;;;;;5008010;28;20635;-84
2023/10/06 10:27:22;;;;;;;0.45;0.45;;;;;;;;;;5019977;28;20045;-85
2023/10/06 10:29:49;;;;;;;0.20;0.20;;;;;;;;;;5023607;28;20401;-84
2023/10/06 10:32:17;;;;;;;0.22;0.22;;;;;;;;;;5008104;28;20044;-84
2023/10/06 10:35:02;;;;;;;0.20;0.00;;;;;;;;;;5006409;28;20076;-84
2023/10/06 10:37:31;;;;;;;0.20;0.20;;;;;;;;;;5010957;28;20490;-84
2023/10/06 10:39:57;;;;;;;0.20;0.20;;;;;;;;;;5007245;28;20037;-85
2023/10/06 10:42:36;;;;;;;0.20;0.15;;;;;;;;;;5003273;28;20481;-85
2023/10/06 10:45:25;;;;;;;0.20;0.10;;;;;;;;;;5023416;28;20041;-85
2023/10/06 10:47:54;;;;;;;0.73;0.30;;;;;;;;;;5014544;28;20046;-84
2023/10/06 10:50:23;;;;;;;0.20;0.10;;;;;;;;;;5021532;28;20116;-85
2023/10/06 10:52:58;;;;;;;0.20;0.13;;;;;;;;;;5004241;28;20373;-85
2023/10/06 10:55:34;;;;;;;0.20;0.15;;;;;;;;;;5026848;28;20191;-84
2023/10/06 10:58:06;;;;;;;0.20;0.10;;;;;;;;;;5005451;28;20053;-84
2023/10/06 11:00:40;;;;;;;;;;;;;;;;;;5001339;28;20567;-87
2023/10/06 11:03:19;;;;;;;;;;;;;;;;;;;;;
2023/10/06 11:05:45;;;;;;;0.25;0.13;;;;;;;;;;5022074;28;20391;-84
2023/10/06 11:08:17;;;;;;;1.27;0.85;;;;;;;;;;5012144;28;20044;-85
2023/10/06 11:10:52;;;;;;;0.30;0.27;;;;;;;;;;5031047;28;20068;-83
2023/10/06 11:13:19;;;;;;;0.20;0.10;;;;;;;;;;5012065;28;20330;-83
2023/10/06 11:15:49;;;;;;;0.30;0.10;;;;;;;;;;5007396;28;20486;-84
2023/10/06 11:18:22;;;;;;;0.20;0.10;;;;;;;;;;5012116;28;20107;-86
2023/10/06 11:20:54;;;;;;;0.20;0.10;;;;;;;;;;5024842;28;20501;-83
2023/10/06 11:23:32;;;;;;;0.30;0.25;;;;;;;;;;5012687;28;20041;-85
2023/10/06 11:26:01;;;;;;;0.20;0.10;;;;;;;;;;5029113;28;20504;-86
2023/10/06 11:28:47;;;;;;;0.20;0.10;;;;;;;;;;5005540;28;20065;-86
2023/10/06 11:31:13;;;;;;;0.63;0.60;;;;;;;;;;5025750;28;20038;-84
2023/10/06 11:34:03;;;;;;;0.68;0.63;;;;;;;;;;5012623;28;20045;-85
2023/10/06 11:36:56;;;;;;;0.20;0.08;;;;;;;;;;5024707;28;20045;-87
2023/10/06 11:39:32;;;;;;;0.20;0.10;;;;;;;;;;5027743;28;20120;-85
2023/10/06 11:42:26;;;;;;;0.20;0.10;;;;;;;;;;5011115;28;20047;-85
2023/10/06 11:44:53;;;;;;;0.20;0.10;;;;;;;;;;5027216;28;20045;-82
2023/10/06 11:47:28;;;;;;;0.20;0.10;;;;;;;;;;5020888;28;20041;-87
2023/10/06 11:53:40;;;;;;;0.75;0.75;;;;;;;;;;5026220;28;20052;-86
2023/10/06 12:04:40;;;;;;;0.20;0.20;;;;;;;;;;5047833;28;20100;-83
2023/10/06 12:07:09;;;;;;;0.20;0.10;;;;;;;;;;5048228;28;20080;-81
2023/10/06 12:09:35;;;;;;;0.20;0.20;;;;;;;;;;5028919;28;20040;-84
2023/10/06 12:12:04;;;;;;;0.20;0.10;;;;;;;;;;5048417;28;20495;-86
2023/10/06 12:14:33;;;;;;;0.32;0.32;;;;;;;;;;5025978;28;20052;-81
2023/10/06 12:16:59;;;;;;;0.20;0.10;;;;;;;;;;5028417;28;20037;-83
2023/10/06 12:19:25;;;;;;;0.60;0.55;;;;;;;;;;5012391;28;20037;-83
2023/10/06 12:21:51;;;;;;;0.20;0.10;;;;;;;;;;5028016;28;20124;-81
2023/10/06 12:24:17;;;;;;;0.30;0.30;;;;;;;;;;5028781;28;20120;-82
2023/10/06 12:26:46;;;;;;;0.20;0.13;;;;;;;;;;5042475;28;20041;-82
2023/10/06 12:29:16;;;;;;;0.20;0.10;;;;;;;;;;5026723;28;20406;-83
2023/10/06 12:31:46;;;;;;;0.20;0.20;;;;;;;;;;5030675;28;20065;-86
2023/10/06 12:34:19;;;;;;;0.20;0.10;;;;;;;;;;5029038;28;20042;-85
2023/10/06 12:36:48;;;;;;;0.20;0.08;;;;;;;;;;5031027;28;20076;-81
2023/10/06 12:39:20;;;;;;;1.45;0.20;;;;;;;;;;5028820;28;20046;-83
2023/10/06 12:41:49;;;;;;;1.38;0.32;;;;;;;;;;5032541;28;20044;-85
2023/10/06 12:44:16;;;;;;;0.22;0.20;;;;;;;;;;5031072;28;20041;-82
2023/10/06 12:46:42;;;;;;;0.25;0.25;;;;;;;;;;5029706;28;20118;-82
2023/10/06 12:49:08;;;;;;;0.30;0.30;;;;;;;;;;5025335;28;20044;-84
2023/10/06 12:51:34;;;;;;;0.50;0.40;;;;;;;;;;5026286;28;20033;-81
2023/10/06 12:54:00;;;;;;;0.20;0.20;;;;;;;;;;5027858;28;20041;-83
2023/10/06 12:56:30;;;;;;;2.25;0.30;;;;;;;;;;5012991;28;20034;-84
2023/10/06 12:58:56;;;;;;;0.20;0.20;;;;;;;;;;5027271;28;20075;-82
2023/10/06 13:01:25;;;;;;;0.20;0.10;;;;;;;;;;5041307;28;20533;-85
2023/10/06 13:03:53;;;;;;;0.20;0.08;;;;;;;;;;5030941;28;20037;-84
2023/10/06 13:06:22;;;;;;;21.70;0.75;;;;;;;;;;5027511;28;20053;-83
2023/10/06 13:08:51;;;;;;;0.77;0.77;;;;;;;;;;5045682;28;20492;-82
2023/10/06 13:11:18;;;;;;;0.20;0.15;;;;;;;;;;5009757;28;20056;-84
2023/10/06 13:13:49;;;;;;;0.95;0.95;;;;;;;;;;5028945;28;20046;-82
2023/10/06 13:16:15;;;;;;;0.40;0.30;;;;;;;;;;5028297;28;20378;-84
2023/10/06 13:18:41;;;;;;;0.30;0.20;;;;;;;;;;5028364;28;20037;-82
2023/10/06 13:21:08;;;;;;;0.40;0.30;;;;;;;;;;5027733;28;20073;-82
2023/10/06 13:23:37;;;;;;;0.22;0.22;;;;;;;;;;5028658;28;20095;-84
2023/10/06 13:26:03;;;;;;;0.25;0.25;;;;;;;;;;5024661;28;20531;-80
2023/10/06 13:28:30;;;;;;;0.20;0.05;;;;;;;;;;5025751;28;20037;-86
2023/10/06 13:30:56;;;;;;;0.75;0.30;;;;;;;;;;5025147;28;20042;-83
2023/10/06 13:33:25;;;;;;;0.20;0.00;;;;;;;;;;5027945;28;20045;-83
2023/10/06 13:35:51;;;;;;;0.28;0.20;;;;;;;;;;5029162;28;20091;-80
2023/10/06 13:38:19;;;;;;;0.60;0.13;;;;;;;;;;5024700;28;20513;-83
2023/10/06 13:40:45;;;;;;;0.57;0.57;;;;;;;;;;5028225;28;20037;-84
2023/10/06 13:43:11;;;;;;;0.52;0.20;;;;;;;;;;5026237;28;20079;-82
2023/10/06 13:45:45;;;;;;;0.40;0.25;;;;;;;;;;5028576;28;20501;-80
2023/10/06 13:48:14;;;;;;;0.20;0.10;;;;;;;;;;5026444;28;20471;-81
2023/10/06 13:50:40;;;;;;;0.20;0.10;;;;;;;;;;5041112;28;20048;-85
2023/10/06 13:53:08;;;;;;;1.23;1.13;;;;;;;;;;5028613;28;20040;-84
2023/10/06 13:55:35;;;;;;;0.20;0.10;;;;;;;;;;5026894;28;20045;-82
2023/10/06 13:58:04;;;;;;;1.08;0.28;;;;;;;;;;5041293;28;20045;-82
2023/10/06 14:00:38;;;;;;;1.95;0.20;;;;;;;;;;5028164;28;20050;-85
2023/10/06 14:03:08;;;;;;;0.50;0.50;;;;;;;;;;5024523;28;20038;-83
2023/10/06 14:05:41;;;;;;;0.35;0.17;;;;;;;;;;5043013;28;20549;-85
2023/10/06 14:08:07;;;;;;;;;;;;;;;;;;5029478;28;20041;-85
2023/10/06 14:10:36;;;;;;;0.20;0.10;;;;;;;;;;5010498;28;20012;-82
2023/10/06 14:13:11;;;;;;;0.30;0.22;;;;;;;;;;5031588;28;20431;-82
2023/10/06 14:18:12;;;;;;;;;;;;;;;;;;5044219;28;20041;-85
2023/10/06 14:20:39;;;;;;;2.17;0.47;;;;;;;;;;5028872;28;20333;-83
2023/10/06 14:23:09;;;;;;;0.65;0.65;;;;;;;;;;5046330;28;20072;-83
2023/10/06 14:25:35;;;;;;;1.75;0.40;;;;;;;;;;5043319;28;20133;-83
2023/10/06 14:28:01;;;;;;;0.20;0.10;;;;;;;;;;5045209;28;20061;-83
2023/10/06 14:30:29;;;;;;;0.40;0.40;;;;;;;;;;5030521;28;20045;-83
2023/10/06 14:46:26;;;;;;;0.20;0.05;;;;;;;;;;5030136;28;20509;-83
2023/10/06 14:48:53;;;;;;;0.40;0.17;;;;;;;;;;5028422;28;20554;-81
2023/10/06 14:51:19;;;;;;;0.20;0.10;;;;;;;;;;5029358;28;20088;-81
2023/10/06 14:53:46;;;;;;;0.20;0.00;;;;;;;;;;5043435;28;20414;-85
2023/10/06 14:56:12;;;;;;;1.58;0.55;;;;;;;;;;5030381;28;20047;-84
2023/10/06 14:58:38;;;;;;;0.25;0.25;;;;;;;;;;5024792;28;20045;-83
2023/10/06 15:01:07;;;;;;;0.73;0.50;;;;;;;;;;5017561;28;20060;-82
2023/10/06 15:03:33;;;;;;;0.20;0.15;;;;;;;;;;5027666;28;20048;-82
2023/10/06 15:06:03;;;;;;;0.20;0.03;;;;;;;;;;5030557;28;20128;-82
2023/10/06 15:08:33;;;;;;;0.20;0.10;;;;;;;;;;5038165;28;20092;-82
2023/10/06 15:10:59;;;;;;;1.10;0.55;;;;;;;;;;5043962;28;20451;-82
2023/10/06 15:13:26;;;;;;;0.38;0.28;;;;;;;;;;5024756;28;20569;-81
2023/10/06 15:15:52;;;;;;;1.33;0.55;;;;;;;;;;5012748;28;20460;-84
2023/10/06 15:18:19;;;;;;;0.20;0.10;;;;;;;;;;5031784;28;20037;-81
2023/10/06 15:20:47;;;;;;;0.20;0.20;;;;;;;;;;5045027;28;20038;-85
2023/10/06 15:23:23;;;;;;;0.43;0.25;;;;;;;;;;5032079;28;20037;-82
2023/10/06 15:26:00;;;;;;;0.20;0.17;;;;;;;;;;5007285;28;20425;-80
2023/10/06 15:28:27;;;;;;;0.28;0.28;;;;;;;;;;5030090;28;20036;-83
2023/10/06 15:30:56;;;;;;;0.20;0.10;;;;;;;;;;5010825;28;20112;-82
2023/10/06 15:33:26;;;;;;;0.20;0.10;;;;;;;;;;5028633;28;20049;-81
2023/10/06 15:35:54;;;;;;;0.20;0.10;;;;;;;;;;5025499;28;20573;-82
2023/10/06 15:38:20;;;;;;;0.20;0.00;;;;;;;;;;5031665;28;20152;-82
2023/10/06 15:40:47;;;;;;;0.30;0.20;;;;;;;;;;5044938;28;20037;-82
2023/10/06 15:43:14;;;;;;;0.22;0.15;;;;;;;;;;5027881;28;20069;-83
2023/10/06 15:45:56;;;;;;;0.20;0.17;;;;;;;;;;5029054;28;20041;-84
2023/10/06 15:48:22;;;;;;;0.20;0.10;;;;;;;;;;5028381;28;20099;-83
2023/10/06 15:50:48;;;;;;;0.20;0.10;;;;;;;;;;5028123;28;20034;-83
2023/10/06 15:53:16;;;;;;;0.20;0.10;;;;;;;;;;5023815;28;20472;-81
2023/10/06 15:55:43;;;;;;;0.65;0.20;;;;;;;;;;5032749;28;20048;-84
2023/10/06 15:58:11;;;;;;;0.45;0.32;;;;;;;;;;5018575;28;20083;-84